Time;durP1;ratioP1;P1;durP2;ratioP2;P2;SDS_P1;SDS_P2;PMS_P1;PMS_P2;Temp;Humidity;BMP_temperature;BMP_pressure;BME280_temperature;BME280_humidity;BME280_pressure;Samples;Min_cycle;Max_cycle;Signal;HPM_P1;HPM_P2
2021/03/29 00:02:22;;;;;;;3.60;1.70;;;12.30;66.10;;;;;;5101664;28;20040;-89
2021/03/29 00:04:47;;;;;;;4.72;1.48;;;12.30;66.50;;;;;;5102921;28;20451;-90
2021/03/29 00:07:13;;;;;;;3.15;1.75;;;12.30;66.60;;;;;;5104379;28;20036;-89
2021/03/29 00:09:40;;;;;;;3.03;1.45;;;12.30;66.50;;;;;;5102252;28;20078;-88
2021/03/29 00:12:08;;;;;;;2.60;1.20;;;12.30;66.40;;;;;;5101445;28;20036;-88
2021/03/29 00:14:34;;;;;;;5.03;1.63;;;12.30;66.50;;;;;;5098141;28;20093;-88
2021/03/29 00:17:00;;;;;;;2.60;1.35;;;12.30;66.30;;;;;;5096988;28;20121;-89
2021/03/29 00:19:29;;;;;;;4.43;1.55;;;12.30;66.20;;;;;;5098207;28;20405;-88
2021/03/29 00:21:55;;;;;;;5.47;1.77;;;12.30;67.10;;;;;;5098746;28;20082;-88
2021/03/29 00:24:21;;;;;;;2.83;1.48;;;12.30;67.50;;;;;;5098787;28;20074;-90
2021/03/29 00:26:47;;;;;;;6.10;1.23;;;12.20;67.40;;;;;;5098081;28;20338;-87
2021/03/29 00:29:12;;;;;;;3.70;1.60;;;12.20;67.70;;;;;;5097475;28;20074;-87
2021/03/29 00:31:39;;;;;;;3.90;1.42;;;12.20;67.40;;;;;;5098562;28;20071;-88
2021/03/29 00:34:06;;;;;;;5.70;1.20;;;12.20;67.40;;;;;;5097806;28;20059;-87
2021/03/29 00:36:32;;;;;;;4.20;1.25;;;12.20;67.00;;;;;;5098287;28;20412;-88
2021/03/29 00:38:58;;;;;;;4.35;1.58;;;12.20;67.60;;;;;;5098715;28;20048;-88
2021/03/29 00:41:24;;;;;;;2.83;1.10;;;12.20;67.70;;;;;;5098626;28;20028;-88
2021/03/29 00:43:50;;;;;;;3.42;1.35;;;12.20;67.10;;;;;;5098247;28;20113;-87
2021/03/29 00:46:18;;;;;;;6.30;1.55;;;12.20;67.20;;;;;;5097990;28;20097;-87
2021/03/29 00:48:46;;;;;;;3.55;1.45;;;12.20;67.90;;;;;;5098539;28;20036;-87
2021/03/29 00:51:18;;;;;;;5.72;1.75;;;12.10;67.20;;;;;;5097572;28;20028;-88
2021/03/29 00:53:48;;;;;;;7.57;1.48;;;12.20;66.80;;;;;;5097515;28;20375;-88
2021/03/29 00:56:14;;;;;;;2.28;1.20;;;12.30;67.70;;;;;;5099530;28;20028;-88
2021/03/29 00:58:41;;;;;;;5.78;1.60;;;12.20;67.20;;;;;;5097275;28;20044;-87
2021/03/29 01:01:14;;;;;;;3.67;1.25;;;12.20;67.40;;;;;;5097435;28;20420;-88
2021/03/29 01:03:47;;;;;;;2.10;1.20;;;12.20;67.60;;;;;;5097810;28;20119;-88
2021/03/29 01:06:19;;;;;;;2.88;1.25;;;12.20;67.90;;;;;;5092885;28;20119;-88
2021/03/29 01:08:51;;;;;;;2.08;1.08;;;12.20;68.00;;;;;;5094198;28;20042;-89
2021/03/29 01:11:24;;;;;;;4.68;1.63;;;12.20;67.90;;;;;;5097047;28;20060;-88
2021/03/29 01:13:58;;;;;;;3.20;1.52;;;12.10;68.00;;;;;;5096257;28;20047;-89
2021/03/29 01:16:27;;;;;;;3.63;1.52;;;12.10;67.60;;;;;;5096899;28;20036;-88
2021/03/29 01:18:55;;;;;;;4.63;1.30;;;12.10;68.00;;;;;;5096591;28;20360;-88
2021/03/29 01:21:40;;;;;;;9.32;2.33;;;12.00;68.00;;;;;;5097233;28;20047;-87
2021/03/29 01:24:17;;;;;;;6.47;1.60;;;12.10;68.30;;;;;;5097023;28;20040;-89
2021/03/29 01:26:45;;;;;;;3.83;1.67;;;12.00;68.20;;;;;;5097050;28;21556;-88
2021/03/29 01:29:14;;;;;;;4.03;1.42;;;12.00;68.20;;;;;;5098482;28;20040;-88
2021/03/29 01:31:41;;;;;;;5.97;1.45;;;12.00;68.00;;;;;;5096449;28;20048;-89
2021/03/29 01:34:09;;;;;;;2.65;1.30;;;12.00;68.50;;;;;;5096711;28;20039;-89
2021/03/29 01:36:35;;;;;;;3.50;1.20;;;12.00;68.80;;;;;;5096395;28;20036;-88
2021/03/29 01:39:03;;;;;;;3.50;1.25;;;12.00;68.20;;;;;;5098227;28;20071;-88
2021/03/29 01:41:30;;;;;;;2.35;1.10;;;12.00;68.40;;;;;;5096730;28;20089;-89
2021/03/29 01:43:57;;;;;;;2.42;1.23;;;12.10;68.40;;;;;;5095884;28;20046;-89
2021/03/29 01:46:23;;;;;;;4.35;1.17;;;12.10;68.00;;;;;;5096847;28;20040;-89
2021/03/29 01:48:49;;;;;;;4.40;1.70;;;12.10;68.00;;;;;;5101593;28;20024;-89
2021/03/29 01:51:16;;;;;;;3.17;1.55;;;12.10;68.50;;;;;;5101896;28;20028;-89
2021/03/29 01:53:43;;;;;;;3.78;1.67;;;12.10;68.50;;;;;;5097069;28;20060;-88
2021/03/29 01:56:09;;;;;;;5.15;1.27;;;12.20;68.50;;;;;;5096641;28;20040;-89
2021/03/29 01:58:35;;;;;;;2.83;1.15;;;12.10;68.60;;;;;;5096836;28;20036;-89
2021/03/29 02:01:08;;;;;;;5.85;1.98;;;12.10;68.80;;;;;;5096426;28;20054;-89
2021/03/29 02:03:34;;;;;;;6.18;1.88;;;12.10;68.50;;;;;;5096107;28;20028;-88
2021/03/29 02:06:01;;;;;;;4.60;1.40;;;12.10;68.40;;;;;;5095803;28;20104;-88
2021/03/29 02:08:28;;;;;;;8.95;2.58;;;12.10;68.60;;;;;;5096086;28;20070;-88
2021/03/29 02:10:55;;;;;;;3.33;1.10;;;12.10;68.40;;;;;;5096957;28;20298;-88
2021/03/29 02:13:25;;;;;;;2.65;1.33;;;12.20;69.10;;;;;;5097357;28;20050;-87
2021/03/29 02:15:54;;;;;;;7.28;2.17;;;12.20;68.40;;;;;;5095571;28;20036;-89
2021/03/29 02:18:25;;;;;;;5.50;1.55;;;12.10;68.60;;;;;;5096217;28;20122;-87
2021/03/29 02:20:53;;;;;;;4.35;1.42;;;12.20;69.30;;;;;;5096196;28;20035;-88
2021/03/29 02:23:19;;;;;;;4.95;2.42;;;12.20;68.90;;;;;;5095526;28;20028;-87
2021/03/29 02:25:47;;;;;;;2.70;1.45;;;12.10;69.00;;;;;;5095945;28;20036;-89
2021/03/29 02:28:13;;;;;;;3.40;1.33;;;12.10;70.00;;;;;;5095485;28;20040;-88
2021/03/29 02:30:41;;;;;;;3.90;1.90;;;12.10;69.10;;;;;;5097061;28;20300;-88
2021/03/29 02:33:09;;;;;;;5.20;1.52;;;12.20;69.40;;;;;;5094995;28;20040;-88
2021/03/29 02:35:37;;;;;;;3.47;1.20;;;12.10;69.10;;;;;;5095030;28;20040;-88
2021/03/29 02:38:06;;;;;;;2.38;1.20;;;12.10;69.00;;;;;;5097368;28;20034;-89
2021/03/29 02:40:32;;;;;;;2.60;1.50;;;12.10;69.20;;;;;;5096279;28;20496;-87
2021/03/29 02:43:01;;;;;;;2.80;1.70;;;12.10;68.80;;;;;;5095276;28;20043;-89
2021/03/29 02:45:31;;;;;;;3.45;1.52;;;12.10;69.20;;;;;;5096227;28;20071;-88
2021/03/29 02:48:06;;;;;;;3.22;1.40;;;12.10;69.20;;;;;;5100625;28;20086;-88
2021/03/29 02:50:33;;;;;;;5.13;1.42;;;12.10;69.20;;;;;;5096532;28;20063;-90
2021/03/29 02:53:03;;;;;;;4.50;1.40;;;12.10;68.90;;;;;;5096313;28;20036;-90
2021/03/29 02:55:31;;;;;;;4.05;1.63;;;12.00;68.80;;;;;;5096969;28;20039;-90
2021/03/29 02:57:59;;;;;;;10.23;1.98;;;12.10;69.20;;;;;;5095163;28;20307;-89
2021/03/29 03:00:26;;;;;;;5.15;1.40;;;12.10;68.80;;;;;;5096240;28;20043;-89
2021/03/29 03:02:54;;;;;;;3.10;1.45;;;12.10;68.70;;;;;;5092563;28;20376;-89
2021/03/29 03:05:23;;;;;;;4.88;1.40;;;12.10;68.60;;;;;;5095959;28;20059;-89
2021/03/29 03:07:51;;;;;;;2.65;1.10;;;12.10;68.50;;;;;;5096244;28;20397;-89
2021/03/29 03:10:17;;;;;;;3.17;1.40;;;12.20;68.90;;;;;;5095291;28;20048;-89
2021/03/29 03:12:44;;;;;;;3.00;1.33;;;12.10;68.80;;;;;;5095235;28;20287;-89
2021/03/29 03:15:15;;;;;;;5.30;1.73;;;12.20;68.60;;;;;;5094544;28;20044;-89
2021/03/29 03:17:41;;;;;;;3.63;1.73;;;12.10;68.10;;;;;;5095937;28;20035;-89
2021/03/29 03:20:11;;;;;;;4.20;1.40;;;12.10;68.60;;;;;;5096065;28;20416;-89
2021/03/29 03:23:00;;;;;;;4.50;1.73;;;12.10;69.10;;;;;;5095836;28;20039;-89
2021/03/29 03:25:27;;;;;;;4.15;1.40;;;12.10;68.80;;;;;;5095850;28;20040;-90
2021/03/29 03:27:54;;;;;;;5.43;1.45;;;12.10;68.80;;;;;;5095217;28;20032;-90
2021/03/29 03:30:29;;;;;;;4.22;1.52;;;12.00;69.10;;;;;;5097590;28;20043;-88
2021/03/29 03:32:54;;;;;;;2.28;1.08;;;12.00;69.00;;;;;;5096327;28;20047;-88
2021/03/29 03:35:22;;;;;;;6.82;1.80;;;12.00;69.70;;;;;;5095353;28;20036;-89
2021/03/29 03:38:06;;;;;;;4.03;1.25;;;12.00;69.60;;;;;;5095815;28;20389;-89
2021/03/29 03:40:33;;;;;;;3.92;1.33;;;12.00;69.80;;;;;;5095927;28;20066;-88
2021/03/29 03:43:01;;;;;;;4.72;1.08;;;11.90;69.30;;;;;;5096126;28;20035;-90
2021/03/29 03:45:34;;;;;;;5.10;1.67;;;11.90;69.30;;;;;;5095569;28;20055;-90
2021/03/29 03:48:01;;;;;;;5.70;1.17;;;11.90;69.40;;;;;;5095462;28;20028;-89
2021/03/29 03:50:26;;;;;;;4.75;1.38;;;11.90;70.00;;;;;;5091491;28;20133;-87
2021/03/29 03:52:54;;;;;;;4.97;1.67;;;11.90;70.00;;;;;;5099911;28;20068;-89
2021/03/29 03:55:21;;;;;;;4.35;1.80;;;11.90;69.60;;;;;;5099688;28;20044;-88
2021/03/29 03:57:47;;;;;;;6.90;1.55;;;11.90;69.50;;;;;;5100430;28;20101;-89
2021/03/29 04:00:15;;;;;;;4.13;1.55;;;11.80;69.30;;;;;;5099009;28;20039;-88
2021/03/29 04:02:41;;;;;;;5.63;1.20;;;11.90;69.50;;;;;;5099606;28;20044;-88
2021/03/29 04:05:14;;;;;;;4.25;1.30;;;11.90;69.50;;;;;;5098797;28;20036;-88
2021/03/29 04:07:39;;;;;;;6.38;2.10;;;12.00;69.40;;;;;;5099412;28;20032;-89
2021/03/29 04:10:20;;;;;;;3.38;1.20;;;12.00;69.40;;;;;;5099129;28;20032;-88
2021/03/29 04:12:53;;;;;;;6.25;1.80;;;12.00;69.70;;;;;;5098785;28;20063;-90
2021/03/29 04:15:19;;;;;;;4.80;1.30;;;11.90;69.60;;;;;;5098021;28;20073;-89
2021/03/29 04:17:45;;;;;;;4.05;1.75;;;12.00;69.50;;;;;;5099194;28;20036;-89
2021/03/29 04:20:12;;;;;;;5.45;1.65;;;12.00;69.70;;;;;;5100794;28;20040;-89
2021/03/29 04:22:37;;;;;;;4.53;1.33;;;12.00;69.30;;;;;;5099785;28;20024;-89
2021/03/29 04:25:05;;;;;;;4.70;1.23;;;12.00;69.60;;;;;;5098423;28;20044;-89
2021/03/29 04:27:30;;;;;;;5.80;1.30;;;12.00;69.90;;;;;;5098424;28;20032;-88
2021/03/29 04:29:56;;;;;;;3.40;1.33;;;12.00;70.00;;;;;;5098001;28;20035;-88
2021/03/29 04:32:21;;;;;;;5.55;2.05;;;12.00;69.50;;;;;;5098113;28;20063;-89
2021/03/29 04:34:47;;;;;;;3.92;1.55;;;12.00;69.20;;;;;;5095920;28;20044;-88
2021/03/29 04:37:14;;;;;;;5.40;1.95;;;12.00;69.50;;;;;;5094081;28;20114;-89
2021/03/29 04:39:40;;;;;;;4.68;1.50;;;12.00;69.40;;;;;;5097195;28;20036;-89
2021/03/29 04:42:06;;;;;;;3.05;1.48;;;12.00;69.10;;;;;;5096231;28;20152;-88
2021/03/29 04:44:33;;;;;;;5.55;1.60;;;12.00;68.80;;;;;;5098322;28;20039;-89
2021/03/29 04:46:58;;;;;;;3.65;1.05;;;11.90;69.00;;;;;;5103392;28;20453;-88
2021/03/29 04:49:24;;;;;;;3.50;1.35;;;11.90;68.70;;;;;;5107480;28;20036;-90
2021/03/29 04:51:50;;;;;;;5.05;1.50;;;11.90;69.00;;;;;;5085016;28;20073;-89
2021/03/29 04:54:16;;;;;;;2.50;1.27;;;11.90;69.00;;;;;;5096156;28;20133;-89
2021/03/29 04:56:41;;;;;;;4.15;1.50;;;11.90;69.10;;;;;;5096926;28;20659;-87
2021/03/29 04:59:07;;;;;;;3.63;1.58;;;11.80;69.10;;;;;;5095392;28;20047;-89
2021/03/29 05:01:32;;;;;;;6.03;1.15;;;11.80;69.20;;;;;;5096676;28;20075;-88
2021/03/29 05:03:58;;;;;;;3.65;1.23;;;11.80;69.00;;;;;;5096485;28;20028;-87
2021/03/29 05:06:25;;;;;;;2.75;1.25;;;11.80;68.90;;;;;;5096281;28;20039;-89
2021/03/29 05:08:50;;;;;;;5.88;1.15;;;11.70;69.20;;;;;;5095685;28;20046;-89
2021/03/29 05:11:16;;;;;;;3.83;1.40;;;11.70;69.30;;;;;;5097865;28;20036;-88
2021/03/29 05:13:41;;;;;;;5.55;1.55;;;11.70;69.60;;;;;;5092955;28;20032;-89
2021/03/29 05:16:07;;;;;;;4.88;1.77;;;11.60;69.80;;;;;;5095561;28;20397;-90
2021/03/29 05:18:32;;;;;;;3.78;1.23;;;11.60;69.60;;;;;;5096786;28;20056;-89
2021/03/29 05:20:58;;;;;;;5.93;1.40;;;11.60;69.50;;;;;;5096877;28;20428;-89
2021/03/29 05:23:24;;;;;;;3.95;1.25;;;11.60;70.10;;;;;;5097205;28;20032;-90
2021/03/29 05:26:02;;;;;;;5.40;1.80;;;11.50;69.80;;;;;;5096731;28;20024;-92
2021/03/29 05:28:28;;;;;;;3.60;1.77;;;11.50;70.20;;;;;;5095654;28;20305;-90
2021/03/29 05:30:54;;;;;;;6.28;2.53;;;11.50;70.30;;;;;;5089426;28;20044;-88
2021/03/29 05:33:19;;;;;;;4.03;1.60;;;11.50;70.10;;;;;;5089015;28;20600;-89
2021/03/29 05:35:45;;;;;;;4.13;1.45;;;11.50;70.00;;;;;;5095281;28;20039;-88
2021/03/29 05:38:11;;;;;;;5.07;1.73;;;11.50;69.90;;;;;;5095418;28;20044;-89
2021/03/29 05:40:37;;;;;;;6.18;2.22;;;11.50;69.60;;;;;;5095190;28;20442;-88
2021/03/29 05:43:04;;;;;;;5.05;1.83;;;11.60;69.70;;;;;;5095933;28;20032;-89
2021/03/29 05:45:31;;;;;;;5.63;1.83;;;11.60;69.80;;;;;;5106964;28;20118;-90
2021/03/29 05:47:56;;;;;;;5.35;1.73;;;11.60;69.40;;;;;;5102447;28;20119;-89
2021/03/29 05:50:22;;;;;;;6.65;1.58;;;11.60;70.00;;;;;;5104544;28;20035;-90
2021/03/29 05:52:48;;;;;;;5.18;1.63;;;11.60;70.00;;;;;;5098533;28;20036;-90
2021/03/29 05:55:23;;;;;;;3.70;1.55;;;11.60;70.00;;;;;;5106663;28;20032;-89
2021/03/29 06:00:37;;;;;;;9.73;2.15;;;11.70;69.40;;;;;;5096222;28;20050;-89
2021/03/29 06:03:35;;;;;;;4.40;1.80;;;11.70;69.60;;;;;;5097786;28;20306;-89
2021/03/29 06:06:09;;;;;;;1.50;1.30;;;11.70;69.40;;;;;;5090041;28;20606;-89
2021/03/29 06:08:47;;;;;;;11.98;2.10;;;11.70;69.60;;;;;;5097646;28;20039;-90
2021/03/29 06:11:40;;;;;;;4.78;2.10;;;11.70;69.70;;;;;;5074225;28;20301;-89
2021/03/29 06:14:17;;;;;;;4.63;1.50;;;11.70;69.80;;;;;;5084424;28;20047;-89
2021/03/29 06:17:02;;;;;;;7.30;1.58;;;11.80;70.00;;;;;;5098175;28;20039;-88
2021/03/29 06:19:48;;;;;;;3.67;1.90;;;11.80;69.80;;;;;;5108663;28;20054;-89
2021/03/29 06:22:28;;;;;;;6.35;1.75;;;11.80;69.50;;;;;;5096243;28;20309;-89
2021/03/29 06:25:07;;;;;;;9.70;1.83;;;11.80;69.30;;;;;;5095940;28;20071;-89
2021/03/29 06:27:39;;;;;;;7.35;1.83;;;11.90;69.20;;;;;;5100967;28;20027;-88
2021/03/29 06:30:19;;;;;;;2.53;1.60;;;12.00;70.50;;;;;;5095073;28;20036;-88
2021/03/29 06:32:58;;;;;;;2.47;1.23;;;12.10;70.30;;;;;;5095463;28;20293;-88
2021/03/29 06:35:40;;;;;;;4.50;1.50;;;12.10;68.90;;;;;;5096418;28;20067;-88
2021/03/29 06:38:08;;;;;;;;;;;12.20;69.40;;;;;;5095226;28;20043;-89
2021/03/29 06:40:36;;;;;;;3.83;1.58;;;12.40;68.90;;;;;;5095477;28;20218;-88
2021/03/29 06:43:28;;;;;;;4.93;1.60;;;12.40;68.20;;;;;;5096078;28;20067;-89
2021/03/29 06:46:00;;;;;;;5.57;2.63;;;12.50;67.70;;;;;;5096027;28;20032;-89
2021/03/29 06:48:39;;;;;;;7.38;1.98;;;12.60;66.90;;;;;;5103651;28;20035;-89
2021/03/29 06:51:17;;;;;;;5.05;1.35;;;12.70;67.60;;;;;;5115684;28;20419;-89
2021/03/29 06:53:43;;;;;;;7.22;1.65;;;12.80;65.70;;;;;;5105290;28;20043;-90
2021/03/29 06:56:24;;;;;;;7.20;1.60;;;13.00;66.50;;;;;;5095912;28;20281;-88
2021/03/29 06:58:51;;;;;;;5.07;1.48;;;13.10;66.60;;;;;;5095779;28;20062;-87
2021/03/29 07:01:21;;;;;;;4.35;2.25;;;13.20;67.30;;;;;;5096874;28;20128;-89
2021/03/29 07:03:48;;;;;;;6.13;1.67;;;13.30;65.60;;;;;;5095001;28;20036;-88
2021/03/29 07:06:21;;;;;;;5.78;1.95;;;13.50;65.20;;;;;;5095698;28;20050;-88
2021/03/29 07:08:49;;;;;;;6.20;1.95;;;13.60;65.70;;;;;;5096814;28;20039;-90
2021/03/29 07:11:17;;;;;;;3.90;1.10;;;13.70;65.20;;;;;;5095497;28;20573;-88
2021/03/29 07:13:44;;;;;;;10.30;1.95;;;13.70;65.00;;;;;;5095652;28;20075;-91
2021/03/29 07:16:10;;;;;;;7.90;1.92;;;13.80;65.90;;;;;;5095632;28;20032;-90
2021/03/29 07:18:37;;;;;;;10.15;1.73;;;13.80;64.40;;;;;;5096871;28;20039;-91
2021/03/29 07:21:05;;;;;;;7.80;1.98;;;13.80;64.70;;;;;;5107453;28;20588;-90
2021/03/29 07:23:32;;;;;;;5.90;1.60;;;13.90;64.00;;;;;;5098717;28;20040;-90
2021/03/29 07:25:58;;;;;;;5.05;2.05;;;13.90;64.50;;;;;;5099501;28;20032;-89
2021/03/29 07:28:28;;;;;;;5.57;1.63;;;14.00;64.60;;;;;;5100101;28;20093;-89
2021/03/29 07:30:56;;;;;;;7.82;2.00;;;14.10;64.10;;;;;;5110750;28;20126;-89
2021/03/29 07:33:22;;;;;;;5.70;1.77;;;14.10;63.30;;;;;;5105968;28;20035;-93
2021/03/29 07:35:57;;;;;;;4.65;1.58;;;14.10;63.80;;;;;;5110161;28;20032;-89
2021/03/29 07:38:26;;;;;;;11.85;2.75;;;14.20;63.50;;;;;;5099753;28;20390;-88
2021/03/29 07:40:54;;;;;;;7.25;2.47;;;14.20;63.80;;;;;;5111325;28;20054;-94
2021/03/29 07:43:25;;;;;;;6.47;2.03;;;14.30;63.10;;;;;;5120545;28;20111;-88
2021/03/29 07:45:53;;;;;;;5.43;2.08;;;14.30;62.90;;;;;;5114265;28;20040;-88
2021/03/29 07:48:46;;;;;;;5.20;2.10;;;14.40;62.50;;;;;;5108016;28;20046;-89
2021/03/29 07:51:13;;;;;;;6.90;2.03;;;14.50;63.00;;;;;;5094421;28;20044;-89
2021/03/29 07:53:48;;;;;;;5.10;1.67;;;14.50;62.80;;;;;;5079549;28;20127;-89
2021/03/29 07:56:35;;;;;;;5.00;1.63;;;14.50;62.30;;;;;;5082106;28;20123;-90
2021/03/29 07:59:03;;;;;;;5.53;1.83;;;14.70;62.20;;;;;;5099420;28;20288;-89
2021/03/29 08:02:02;;;;;;;8.55;2.78;;;14.80;62.00;;;;;;5106926;28;20391;-89
2021/03/29 08:05:05;;;;;;;7.20;2.22;;;14.90;61.60;;;;;;5112402;28;20120;-89
2021/03/29 08:07:47;;;;;;;4.13;2.08;;;14.90;61.80;;;;;;5118993;28;20448;-89
2021/03/29 08:10:15;;;;;;;7.60;2.35;;;14.90;62.70;;;;;;5112856;28;20036;-90
2021/03/29 08:13:01;;;;;;;9.70;2.78;;;15.00;61.30;;;;;;5119301;28;20047;-88
2021/03/29 08:15:58;;;;;;;4.50;1.88;;;15.10;62.00;;;;;;5119176;28;20052;-88
2021/03/29 08:18:25;;;;;;;6.10;2.47;;;15.20;60.50;;;;;;5099044;28;20676;-89
2021/03/29 08:20:54;;;;;;;7.63;3.03;;;15.20;61.20;;;;;;5101332;28;20043;-89
2021/03/29 08:23:35;;;;;;;8.82;2.47;;;15.20;60.10;;;;;;5118246;28;20096;-89
2021/03/29 08:26:11;;;;;;;6.90;2.33;;;15.10;59.90;;;;;;5116851;28;20032;-89
2021/03/29 08:29:10;;;;;;;6.07;2.65;;;15.00;59.80;;;;;;5113151;28;20466;-89
2021/03/29 08:32:13;;;;;;;9.82;2.10;;;15.00;61.30;;;;;;5107239;28;20146;-90
2021/03/29 08:34:52;;;;;;;9.13;2.55;;;15.00;61.80;;;;;;5083964;28;20416;-89
2021/03/29 08:37:25;;;;;;;9.15;2.20;;;15.00;61.20;;;;;;5100567;28;20109;-89
2021/03/29 08:39:53;;;;;;;5.88;2.20;;;15.00;61.50;;;;;;5116827;28;20073;-88
2021/03/29 08:42:21;;;;;;;11.82;2.53;;;15.10;61.10;;;;;;5108312;28;20032;-90
2021/03/29 08:44:49;;;;;;;11.57;2.10;;;15.20;61.80;;;;;;5098124;28;20127;-90
2021/03/29 08:47:21;;;;;;;11.95;2.53;;;15.30;61.40;;;;;;5097652;28;20040;-88
2021/03/29 08:49:52;;;;;;;12.30;2.67;;;15.40;61.20;;;;;;5098415;28;20431;-89
2021/03/29 08:52:18;;;;;;;9.75;2.67;;;15.40;61.80;;;;;;5098773;28;20451;-89
2021/03/29 08:54:49;;;;;;;7.72;2.10;;;15.50;62.10;;;;;;5097462;28;20042;-89
2021/03/29 08:57:14;;;;;;;10.25;2.45;;;15.70;62.10;;;;;;5107469;28;20460;-89
2021/03/29 08:59:40;;;;;;;7.63;3.00;;;15.80;61.10;;;;;;5097358;28;20139;-90
2021/03/29 09:02:13;;;;;;;12.25;3.40;;;15.90;61.70;;;;;;5103832;28;20118;-89
2021/03/29 09:04:59;;;;;;;12.55;3.20;;;16.00;59.90;;;;;;5098702;28;20046;-89
2021/03/29 09:07:37;;;;;;;6.97;2.72;;;16.00;62.10;;;;;;5098340;28;20036;-90
2021/03/29 09:10:33;;;;;;;7.72;4.05;;;16.00;59.60;;;;;;5097461;28;20428;-89
2021/03/29 09:13:00;;;;;;;10.77;3.30;;;16.00;59.20;;;;;;5077363;28;20125;-90
2021/03/29 09:15:29;;;;;;;9.85;2.72;;;16.00;57.80;;;;;;5080271;28;20520;-89
2021/03/29 09:18:08;;;;;;;7.78;3.17;;;16.00;58.80;;;;;;5098733;28;20039;-90
2021/03/29 09:20:36;;;;;;;10.60;2.97;;;16.10;59.40;;;;;;5098503;28;20047;-89
2021/03/29 09:23:03;;;;;;;8.70;2.78;;;16.20;58.30;;;;;;5096666;28;20032;-89
2021/03/29 09:25:38;;;;;;;6.35;2.65;;;16.10;58.60;;;;;;5098910;28;20036;-88
2021/03/29 09:28:15;;;;;;;9.02;3.08;;;16.20;58.00;;;;;;5116981;28;20056;-89
2021/03/29 09:30:41;;;;;;;8.45;2.40;;;16.10;57.80;;;;;;5107058;28;20035;-89
2021/03/29 09:33:07;;;;;;;8.48;2.63;;;16.20;56.60;;;;;;5097383;28;20043;-91
2021/03/29 09:35:33;;;;;;;6.78;2.63;;;16.30;57.40;;;;;;5097402;28;20430;-90
2021/03/29 09:37:59;;;;;;;10.32;2.80;;;16.40;57.70;;;;;;5096751;28;20067;-90
2021/03/29 09:40:32;;;;;;;15.57;3.60;;;16.60;57.20;;;;;;5098155;28;20362;-89
2021/03/29 09:42:58;;;;;;;6.05;2.65;;;16.70;56.40;;;;;;5098150;28;20115;-91
2021/03/29 09:45:29;;;;;;;9.77;3.47;;;16.70;55.10;;;;;;5095613;28;20056;-89
2021/03/29 09:48:13;;;;;;;6.22;2.63;;;16.70;56.50;;;;;;5097280;28;20039;-90
2021/03/29 09:50:47;;;;;;;10.20;2.78;;;16.80;55.50;;;;;;5096620;28;20040;-90
2021/03/29 09:53:23;;;;;;;7.07;3.10;;;17.00;56.40;;;;;;5096887;28;20409;-91
2021/03/29 09:55:56;;;;;;;8.45;2.30;;;17.20;55.10;;;;;;5096614;28;20106;-90
2021/03/29 09:58:30;;;;;;;5.00;2.47;;;17.40;53.90;;;;;;5095781;28;20594;-90
2021/03/29 10:01:00;;;;;;;10.10;2.38;;;17.50;55.20;;;;;;5096514;28;20055;-90
2021/03/29 10:03:27;;;;;;;5.88;2.20;;;17.70;54.00;;;;;;5093101;28;20032;-89
2021/03/29 10:05:54;;;;;;;7.60;3.35;;;17.80;54.40;;;;;;5096694;28;20385;-91
2021/03/29 10:08:33;;;;;;;8.52;2.70;;;17.90;53.30;;;;;;5096792;28;20040;-89
2021/03/29 10:11:04;;;;;;;5.75;2.47;;;18.00;53.40;;;;;;5097097;28;20032;-90
2021/03/29 10:13:35;;;;;;;11.73;2.45;;;18.00;52.20;;;;;;5096412;28;20127;-91
2021/03/29 10:16:17;;;;;;;6.90;2.70;;;17.90;52.00;;;;;;5095787;28;20044;-90
2021/03/29 10:18:43;;;;;;;5.53;3.03;;;18.00;54.00;;;;;;5096208;28;20065;-92
2021/03/29 10:21:09;;;;;;;6.93;2.83;;;18.20;54.20;;;;;;5098151;28;20044;-88
2021/03/29 10:23:41;;;;;;;7.28;2.40;;;18.20;52.20;;;;;;5096899;28;20119;-89
2021/03/29 10:26:20;;;;;;;11.73;2.20;;;18.30;51.70;;;;;;5097221;28;20546;-90
2021/03/29 10:28:54;;;;;;;9.00;3.10;;;18.40;50.00;;;;;;5091312;28;20035;-90
2021/03/29 10:31:20;;;;;;;6.45;2.50;;;18.50;50.40;;;;;;5096634;28;20431;-90
2021/03/29 10:33:45;;;;;;;10.43;2.78;;;18.50;49.60;;;;;;5097259;28;20058;-88
2021/03/29 10:36:16;;;;;;;8.63;2.30;;;18.50;50.30;;;;;;5096336;28;20055;-90
2021/03/29 10:38:42;;;;;;;6.63;2.30;;;18.50;49.70;;;;;;5095967;28;20047;-92
2021/03/29 10:41:09;;;;;;;10.73;2.67;;;18.60;48.90;;;;;;5095574;28;20058;-92
2021/03/29 10:43:35;;;;;;;6.60;1.92;;;18.60;51.00;;;;;;5096384;28;20028;-89
2021/03/29 10:46:03;;;;;;;11.55;2.97;;;18.60;49.40;;;;;;5095956;28;20097;-91
2021/03/29 10:48:28;;;;;;;8.75;2.20;;;18.70;49.10;;;;;;5097042;28;20474;-91
2021/03/29 10:50:54;;;;;;;5.75;2.30;;;18.60;50.60;;;;;;5095026;28;20031;-92
2021/03/29 10:53:21;;;;;;;8.55;3.00;;;18.60;49.20;;;;;;5093482;28;20144;-90
2021/03/29 10:55:47;;;;;;;5.97;2.47;;;18.60;49.50;;;;;;5094649;28;20035;-91
2021/03/29 10:58:13;;;;;;;7.90;2.03;;;18.60;49.80;;;;;;5094876;28;20078;-89
2021/03/29 11:00:38;;;;;;;5.55;2.03;;;18.70;48.60;;;;;;5097138;28;20055;-89
2021/03/29 11:03:04;;;;;;;6.18;1.50;;;18.70;50.20;;;;;;5095983;28;20587;-91
2021/03/29 11:05:30;;;;;;;14.20;2.38;;;18.90;47.30;;;;;;5096779;28;20121;-91
2021/03/29 11:07:55;;;;;;;8.60;1.90;;;19.00;47.70;;;;;;5096531;28;20083;-89
2021/03/29 11:10:21;;;;;;;5.63;1.95;;;19.00;46.90;;;;;;5099999;28;20042;-92
2021/03/29 11:12:47;;;;;;;6.88;2.38;;;19.00;48.30;;;;;;5118942;28;20040;-90
2021/03/29 11:15:13;;;;;;;3.53;1.48;;;19.20;47.80;;;;;;5102813;28;20366;-88
2021/03/29 11:17:39;;;;;;;4.07;1.88;;;19.30;47.80;;;;;;5115711;28;20285;-92
2021/03/29 11:20:08;;;;;;;4.30;1.52;;;19.40;46.70;;;;;;5116838;28;20035;-92
2021/03/29 11:22:38;;;;;;;9.68;1.83;;;19.40;46.70;;;;;;5110599;28;20028;-90
2021/03/29 11:25:06;;;;;;;3.72;1.73;;;19.40;46.90;;;;;;5101874;28;20129;-89
2021/03/29 11:27:32;;;;;;;7.45;2.58;;;19.40;46.40;;;;;;5093764;28;20028;-91
2021/03/29 11:29:57;;;;;;;5.78;1.92;;;19.60;47.10;;;;;;5087835;28;20397;-91
2021/03/29 11:32:25;;;;;;;5.72;2.10;;;19.90;45.30;;;;;;5096877;28;20043;-89
2021/03/29 11:34:50;;;;;;;6.32;1.75;;;19.90;46.70;;;;;;5099086;28;20046;-90
2021/03/29 11:37:16;;;;;;;3.85;1.77;;;20.00;44.80;;;;;;5099995;28;20566;-90
2021/03/29 11:39:41;;;;;;;5.32;1.27;;;20.00;44.00;;;;;;5098589;28;20047;-92
2021/03/29 11:42:07;;;;;;;8.18;1.95;;;20.00;44.20;;;;;;5096031;28;20039;-90
2021/03/29 11:44:32;;;;;;;6.03;2.00;;;20.00;46.10;;;;;;5097059;28;20056;-91
2021/03/29 11:46:58;;;;;;;4.32;1.20;;;20.00;45.30;;;;;;5095696;28;20123;-91
2021/03/29 11:49:23;;;;;;;4.10;1.10;;;20.10;44.70;;;;;;5095659;28;20036;-91
2021/03/29 11:51:49;;;;;;;7.13;1.60;;;20.00;44.50;;;;;;5096750;28;20110;-90
2021/03/29 11:54:14;;;;;;;4.38;1.65;;;20.20;43.80;;;;;;5096251;28;20094;-91
2021/03/29 11:56:40;;;;;;;4.75;1.60;;;20.20;43.90;;;;;;5095588;28;20437;-91
2021/03/29 11:59:06;;;;;;;6.20;2.00;;;20.30;45.10;;;;;;5094884;28;20064;-91
2021/03/29 12:01:45;;;;;;;8.18;1.55;;;20.50;44.50;;;;;;5096092;28;20118;-89
2021/03/29 12:04:19;;;;;;;4.60;1.52;;;20.60;44.70;;;;;;5101735;28;20042;-90
2021/03/29 12:09:19;;;;;;;6.22;2.22;;;20.60;43.00;;;;;;5098263;28;20036;-89
2021/03/29 12:11:52;;;;;;;5.60;1.70;;;20.50;43.20;;;;;;5098876;28;20107;-90
2021/03/29 12:14:17;;;;;;;;;;;20.40;43.90;;;;;;5100454;28;20101;-91
2021/03/29 12:16:46;;;;;;;8.82;1.55;;;20.50;44.30;;;;;;5099360;28;20271;-89
2021/03/29 12:19:13;;;;;;;6.05;1.80;;;20.40;44.40;;;;;;5097932;28;20625;-90
2021/03/29 12:21:40;;;;;;;5.38;1.65;;;20.30;43.60;;;;;;5099171;28;20040;-92
2021/03/29 12:24:13;;;;;;;6.22;1.98;;;20.40;44.70;;;;;;5099132;28;20040;-91
2021/03/29 12:26:40;;;;;;;5.30;2.15;;;20.50;43.90;;;;;;5098613;28;20032;-91
2021/03/29 12:29:09;;;;;;;5.70;1.50;;;20.50;46.20;;;;;;5098682;28;20109;-92
2021/03/29 12:31:36;;;;;;;9.05;2.53;;;20.60;47.20;;;;;;5099239;28;20031;-92
2021/03/29 12:34:03;;;;;;;5.47;1.85;;;20.60;45.40;;;;;;5099464;28;20036;-91
2021/03/29 12:36:43;;;;;;;5.28;2.30;;;20.70;45.20;;;;;;5100120;28;20089;-92
2021/03/29 12:39:19;;;;;;;6.90;1.88;;;20.70;45.10;;;;;;5098972;28;20032;-93
2021/03/29 12:41:50;;;;;;;6.72;1.90;;;20.90;44.10;;;;;;5099813;28;20071;-93
2021/03/29 12:44:18;;;;;;;6.45;1.40;;;21.10;43.70;;;;;;5100032;28;20028;-91
2021/03/29 12:46:48;;;;;;;6.85;1.75;;;21.10;44.30;;;;;;5099102;28;20032;-93
2021/03/29 12:49:15;;;;;;;4.60;2.10;;;21.10;44.90;;;;;;5099737;28;20040;-92
2021/03/29 12:51:42;;;;;;;11.63;3.05;;;21.10;45.60;;;;;;5099354;28;20039;-91
2021/03/29 12:54:21;;;;;;;5.15;1.52;;;21.20;43.70;;;;;;5099359;28;20084;-92
2021/03/29 12:56:46;;;;;;;11.15;2.35;;;21.30;44.90;;;;;;5082989;28;20041;-92
2021/03/29 12:59:14;;;;;;;11.00;3.15;;;21.30;43.20;;;;;;5079810;28;20426;-92
2021/03/29 13:01:42;;;;;;;8.52;2.47;;;21.50;43.60;;;;;;5082998;28;20067;-93
2021/03/29 13:04:14;;;;;;;5.50;1.48;;;21.60;42.40;;;;;;5099215;28;20032;-90
2021/03/29 13:06:45;;;;;;;5.78;2.70;;;21.70;43.40;;;;;;5099094;28;20036;-91